Time;durP1;ratioP1;P1;durP2;ratioP2;P2;SDS_P1;SDS_P2;PMS_P1;PMS_P2;Temp;Humidity;BMP_temperature;BMP_pressure;BME280_temperature;BME280_humidity;BME280_pressure;Samples;Min_cycle;Max_cycle;Signal;HPM_P1;HPM_P2
2022/08/21 00:01:49;;;;;;;1.70;0.70;;;;;;;19.26;45.68;92470.88;5032380;28;20095;-78
2022/08/21 00:04:14;;;;;;;0.88;0.80;;;;;;;19.18;46.02;92475.22;5034031;28;20486;-78
2022/08/21 00:06:40;;;;;;;1.75;0.75;;;;;;;19.05;46.66;92473.72;5044499;28;20104;-78
2022/08/21 00:09:07;;;;;;;0.57;0.55;;;;;;;18.93;46.03;92462.06;5027674;28;20061;-78
2022/08/21 00:11:35;;;;;;;0.68;0.50;;;;;;;18.91;45.93;92469.59;5032052;28;20040;-79
2022/08/21 00:14:02;;;;;;;2.67;0.70;;;;;;;18.87;46.74;92471.38;5028510;28;20080;-78
2022/08/21 00:16:28;;;;;;;0.82;0.70;;;;;;;18.88;45.61;92478.22;5032755;28;20124;-78
2022/08/21 00:18:54;;;;;;;0.50;0.50;;;;;;;19.09;43.99;92469.28;5031301;28;20120;-78
2022/08/21 00:21:19;;;;;;;0.82;0.60;;;;;;;19.17;43.63;92476.34;5032693;28;20030;-78
2022/08/21 00:23:45;;;;;;;0.90;0.60;;;;;;;19.34;43.70;92465.41;5032579;28;20100;-78
2022/08/21 00:26:10;;;;;;;2.22;0.88;;;;;;;19.41;43.78;92464.03;5032751;28;20034;-78
2022/08/21 00:28:36;;;;;;;1.02;0.80;;;;;;;19.47;43.16;92463.44;5031034;28;20063;-78
2022/08/21 00:31:03;;;;;;;1.02;0.70;;;;;;;19.55;43.32;92467.81;5032927;28;20065;-78
2022/08/21 00:33:30;;;;;;;2.92;0.82;;;;;;;19.69;43.16;92464.00;5033238;28;20036;-78
2022/08/21 00:35:56;;;;;;;1.17;0.65;;;;;;;19.69;43.20;92469.31;5033194;28;20037;-78
2022/08/21 00:38:22;;;;;;;0.68;0.60;;;;;;;19.71;43.13;92469.75;5031345;28;20065;-78
2022/08/21 00:40:53;;;;;;;0.93;0.70;;;;;;;19.70;43.00;92470.84;5031666;28;20033;-78
2022/08/21 00:43:23;;;;;;;1.03;0.77;;;;;;;19.72;42.99;92474.72;5034025;28;20391;-78
2022/08/21 00:45:50;;;;;;;0.98;0.70;;;;;;;19.73;42.85;92467.53;5032166;28;20399;-78
2022/08/21 00:48:15;;;;;;;1.33;0.80;;;;;;;19.78;42.92;92455.88;5033983;28;20025;-78
2022/08/21 00:51:07;;;;;;;1.02;0.70;;;;;;;19.72;43.19;92468.63;5031113;28;20048;-78
2022/08/21 00:53:34;;;;;;;2.80;1.00;;;;;;;19.76;43.14;92453.53;5025432;28;20029;-78
2022/08/21 00:56:02;;;;;;;1.02;0.80;;;;;;;19.73;43.46;92460.31;5032035;28;20036;-78
2022/08/21 00:58:30;;;;;;;2.25;0.60;;;;;;;19.74;43.23;92453.13;5029534;28;20041;-78
2022/08/21 01:00:59;;;;;;;2.03;0.90;;;;;;;19.71;43.61;92446.59;5030848;28;20406;-78
2022/08/21 01:03:25;;;;;;;0.82;0.63;;;;;;;19.73;43.19;92452.34;5033237;28;20415;-78
2022/08/21 01:05:52;;;;;;;1.27;0.70;;;;;;;19.64;43.92;92456.28;5032518;28;20033;-78
2022/08/21 01:08:20;;;;;;;1.05;0.80;;;;;;;19.59;43.96;92454.66;5032912;28;20083;-78
2022/08/21 01:10:47;;;;;;;1.38;0.73;;;;;;;19.51;43.94;92452.91;5030933;28;20029;-79
2022/08/21 01:13:16;;;;;;;1.48;0.75;;;;;;;19.54;44.14;92444.25;5031561;28;20080;-78
2022/08/21 01:15:44;;;;;;;5.90;0.95;;;;;;;19.45;44.55;92443.66;5032487;28;20112;-78
2022/08/21 01:18:12;;;;;;;0.55;0.55;;;;;;;19.39;44.87;92451.13;5030836;28;20026;-78
2022/08/21 01:20:42;;;;;;;1.67;0.60;;;;;;;19.38;44.49;92440.84;5030989;28;20044;-79
2022/08/21 01:23:07;;;;;;;0.70;0.65;;;;;;;19.47;44.22;92452.81;5029528;28;20040;-78
2022/08/21 01:25:34;;;;;;;1.30;0.70;;;;;;;19.42;44.18;92455.75;5033154;28;20100;-78
2022/08/21 01:28:08;;;;;;;1.52;0.80;;;;;;;19.43;44.09;92451.19;5031678;28;20037;-78
2022/08/21 01:30:36;;;;;;;0.65;0.65;;;;;;;19.39;44.33;92455.66;5030157;28;20505;-78
2022/08/21 01:33:02;;;;;;;1.15;0.80;;;;;;;19.37;44.15;92447.28;5022422;28;20025;-78
2022/08/21 01:35:28;;;;;;;3.08;0.73;;;;;;;19.35;44.46;92461.63;5033049;28;20388;-78
2022/08/21 01:37:54;;;;;;;0.95;0.68;;;;;;;19.39;44.17;92450.34;5033983;28;20584;-79
2022/08/21 01:40:21;;;;;;;1.45;0.90;;;;;;;19.34;44.24;92454.81;4990834;28;20056;-79
2022/08/21 01:42:48;;;;;;;1.15;0.80;;;;;;;19.30;44.33;92461.91;5039245;28;20033;-79
2022/08/21 01:45:15;;;;;;;0.82;0.70;;;;;;;19.39;43.97;92458.31;5030149;28;20055;-79
2022/08/21 01:47:41;;;;;;;0.98;0.70;;;;;;;19.44;43.92;92450.09;5035722;28;20049;-78
2022/08/21 01:50:12;;;;;;;3.35;0.77;;;;;;;19.37;44.13;92439.31;5031582;28;20053;-78
2022/08/21 01:52:39;;;;;;;1.00;0.70;;;;;;;19.30;44.45;92443.31;5035406;28;20076;-79
2022/08/21 01:55:06;;;;;;;1.05;0.70;;;;;;;19.28;44.24;92434.94;5033844;28;20025;-79
2022/08/21 01:57:32;;;;;;;1.50;0.90;;;;;;;19.25;44.26;92440.13;5034525;28;20044;-80
2022/08/21 01:59:58;;;;;;;3.65;0.80;;;;;;;19.24;44.57;92431.41;5033097;28;20049;-79
2022/08/21 02:02:24;;;;;;;2.90;0.70;;;;;;;19.37;44.21;92421.50;5033665;28;20047;-79
2022/08/21 02:04:50;;;;;;;1.20;0.90;;;;;;;19.43;44.10;92429.97;5016341;28;20124;-79
2022/08/21 02:07:15;;;;;;;1.42;0.85;;;;;;;19.28;44.60;92420.88;5035595;28;20045;-79
2022/08/21 02:09:42;;;;;;;2.75;0.70;;;;;;;19.27;44.60;92417.47;5047430;28;20048;-80
2022/08/21 02:12:08;;;;;;;0.82;0.60;;;;;;;19.17;44.81;92417.97;5035290;28;20438;-78
2022/08/21 02:14:34;;;;;;;1.33;0.85;;;;;;;19.14;44.86;92418.66;4998477;28;20041;-79
2022/08/21 02:17:01;;;;;;;0.60;0.50;;;;;;;19.07;44.81;92424.56;5032994;28;20124;-79
2022/08/21 02:19:26;;;;;;;1.60;0.80;;;;;;;19.15;44.66;92420.19;5033253;28;20033;-79
2022/08/21 02:21:52;;;;;;;1.75;0.82;;;;;;;19.17;44.82;92419.84;5049867;28;20049;-79
2022/08/21 02:24:17;;;;;;;1.17;0.60;;;;;;;19.07;44.77;92424.56;5042147;28;20038;-79
2022/08/21 02:26:43;;;;;;;3.13;0.75;;;;;;;19.27;44.11;92420.13;5034325;28;20025;-79
2022/08/21 02:29:08;;;;;;;0.88;0.73;;;;;;;19.29;43.94;92417.13;5033632;28;20041;-79
2022/08/21 02:31:34;;;;;;;1.05;0.80;;;;;;;19.26;44.30;92417.81;5033901;28;20041;-78
2022/08/21 02:34:00;;;;;;;1.17;0.70;;;;;;;19.15;44.35;92414.88;5034014;28;20037;-79
2022/08/21 02:36:25;;;;;;;1.58;0.77;;;;;;;19.16;44.42;92410.34;5032059;28;20150;-79
2022/08/21 02:38:51;;;;;;;1.23;0.70;;;;;;;19.12;44.43;92404.97;5031936;28;20045;-79
2022/08/21 02:41:20;;;;;;;1.35;0.70;;;;;;;19.09;44.59;92406.41;5034129;28;20045;-78
2022/08/21 02:43:46;;;;;;;1.17;0.80;;;;;;;19.07;44.58;92413.16;5033930;28;20083;-78
2022/08/21 02:46:15;;;;;;;2.55;0.90;;;;;;;19.07;44.71;92403.31;5031242;28;20048;-78
2022/08/21 02:48:41;;;;;;;3.05;0.70;;;;;;;19.03;44.72;92412.31;5032799;28;20135;-78
2022/08/21 02:51:12;;;;;;;0.90;0.70;;;;;;;18.94;45.02;92404.50;5033832;28;20052;-79
2022/08/21 02:53:42;;;;;;;3.25;0.75;;;;;;;18.98;44.97;92402.72;5034869;28;20037;-79
2022/08/21 02:56:10;;;;;;;0.98;0.77;;;;;;;18.91;45.18;92394.56;5032116;28;20037;-79
2022/08/21 02:58:40;;;;;;;0.50;0.50;;;;;;;18.99;45.00;92398.94;5030779;28;20064;-79
2022/08/21 03:01:09;;;;;;;2.05;0.98;;;;;;;18.92;45.17;92398.75;5032643;28;20045;-79
2022/08/21 03:03:35;;;;;;;1.88;0.70;;;;;;;18.89;44.98;92396.78;5034154;28;20041;-79
2022/08/21 03:06:01;;;;;;;3.25;0.90;;;;;;;18.88;45.09;92393.34;5041832;28;20040;-79
2022/08/21 03:08:26;;;;;;;2.88;0.80;;;;;;;18.82;45.44;92391.28;5039440;28;20077;-79
2022/08/21 03:10:53;;;;;;;0.82;0.75;;;;;;;18.78;45.04;92395.72;5031323;28;20050;-79
2022/08/21 03:13:20;;;;;;;0.90;0.68;;;;;;;18.76;45.31;92397.94;5033662;28;20511;-79
2022/08/21 03:15:46;;;;;;;1.20;0.80;;;;;;;18.85;44.62;92391.41;5033523;28;20029;-79
2022/08/21 03:18:12;;;;;;;1.35;0.70;;;;;;;18.79;44.64;92392.75;5024388;28;20042;-79
2022/08/21 03:20:41;;;;;;;1.58;0.70;;;;;;;18.86;44.38;92382.31;5030961;28;20056;-79
2022/08/21 03:23:07;;;;;;;1.20;0.60;;;;;;;18.84;44.42;92384.53;5034771;28;20033;-79
2022/08/21 03:25:34;;;;;;;2.13;0.55;;;;;;;18.86;44.01;92382.31;5032863;28;20038;-78
2022/08/21 03:28:02;;;;;;;1.00;0.70;;;;;;;18.87;44.04;92370.59;5031011;28;20063;-79
2022/08/21 03:30:30;;;;;;;2.47;0.90;;;;;;;18.88;44.03;92385.41;5030832;28;20022;-79
2022/08/21 03:32:57;;;;;;;0.95;0.73;;;;;;;18.87;44.02;92383.88;5032884;28;20483;-79
2022/08/21 03:35:23;;;;;;;1.55;0.80;;;;;;;18.82;44.16;92381.44;5032587;28;20141;-79
2022/08/21 03:37:48;;;;;;;0.82;0.70;;;;;;;18.82;43.97;92386.75;5031493;28;20128;-79
2022/08/21 03:40:17;;;;;;;0.93;0.70;;;;;;;18.82;43.94;92381.44;5029221;28;20033;-80
2022/08/21 03:42:43;;;;;;;0.63;0.60;;;;;;;18.86;43.86;92377.00;5032805;28;20033;-78
2022/08/21 03:45:09;;;;;;;0.95;0.60;;;;;;;18.78;43.81;92380.59;5033136;28;20400;-78
2022/08/21 03:47:35;;;;;;;0.88;0.70;;;;;;;18.72;44.07;92387.22;5031800;28;20030;-78
2022/08/21 03:50:04;;;;;;;1.60;0.90;;;;;;;18.76;43.69;92382.03;5031123;28;20557;-79
2022/08/21 03:52:30;;;;;;;1.15;0.77;;;;;;;18.71;43.47;92370.56;5030220;28;20085;-78
2022/08/21 03:54:55;;;;;;;0.70;0.57;;;;;;;18.73;43.60;92370.19;5033020;28;20037;-78
2022/08/21 03:57:21;;;;;;;0.93;0.80;;;;;;;18.73;43.90;92373.63;5031000;28;20048;-78
2022/08/21 03:59:47;;;;;;;3.05;0.70;;;;;;;18.68;43.42;92373.09;5033569;28;20072;-78
2022/08/21 04:02:16;;;;;;;0.95;0.70;;;;;;;18.61;43.96;92372.91;5033298;28;20045;-78
2022/08/21 04:04:43;;;;;;;2.55;0.73;;;;;;;18.61;44.22;92378.97;5035549;28;20031;-78
2022/08/21 04:07:08;;;;;;;0.88;0.68;;;;;;;18.63;43.62;92386.59;5036444;28;20041;-78
2022/08/21 04:09:34;;;;;;;1.80;0.73;;;;;;;18.70;43.17;92384.13;5035711;28;20040;-79
2022/08/21 04:12:00;;;;;;;2.17;0.70;;;;;;;18.69;43.62;92375.41;5018154;28;20495;-79
2022/08/21 04:14:26;;;;;;;1.23;0.80;;;;;;;18.67;43.54;92368.91;5035121;28;20045;-79
2022/08/21 04:16:51;;;;;;;0.88;0.70;;;;;;;18.66;43.51;92370.00;5035537;28;20041;-78
2022/08/21 04:19:17;;;;;;;1.02;0.60;;;;;;;18.65;43.36;92365.84;5035247;28;20110;-78
2022/08/21 04:21:43;;;;;;;1.05;0.70;;;;;;;18.69;43.37;92366.69;5038497;28;20614;-78
2022/08/21 04:24:10;;;;;;;0.85;0.63;;;;;;;18.59;43.46;92367.19;5036078;28;20025;-78
2022/08/21 04:26:38;;;;;;;4.25;0.85;;;;;;;18.57;43.81;92377.34;5035050;28;20699;-78
2022/08/21 04:29:06;;;;;;;2.50;0.90;;;;;;;18.52;44.21;92365.88;5036644;28;20471;-77
2022/08/21 04:31:33;;;;;;;3.35;0.80;;;;;;;18.49;44.14;92374.50;5031239;28;20403;-77
2022/08/21 04:33:59;;;;;;;2.88;0.90;;;;;;;18.50;44.09;92369.97;5030842;28;20494;-77
2022/08/21 04:36:25;;;;;;;1.65;0.88;;;;;;;18.45;44.46;92370.97;5033740;28;20037;-78
2022/08/21 04:38:50;;;;;;;0.98;0.75;;;;;;;18.47;44.15;92371.44;5033409;28;20133;-77
2022/08/21 04:41:16;;;;;;;0.70;0.55;;;;;;;18.46;44.30;92364.59;5011670;28;20156;-78
2022/08/21 04:43:42;;;;;;;1.30;0.80;;;;;;;18.47;43.94;92382.03;5029485;28;20036;-78
2022/08/21 04:46:08;;;;;;;0.70;0.45;;;;;;;18.49;43.77;92377.16;5031996;28;20068;-77
2022/08/21 04:48:34;;;;;;;1.13;0.63;;;;;;;18.46;43.95;92379.69;5021211;28;20087;-77
2022/08/21 04:51:06;;;;;;;1.13;0.82;;;;;;;18.46;43.88;92385.78;5031973;28;20036;-77
2022/08/21 04:53:35;;;;;;;1.35;0.70;;;;;;;18.49;44.15;92390.41;5030821;28;20033;-78
2022/08/21 04:56:07;;;;;;;0.75;0.60;;;;;;;18.58;43.79;92386.84;5032901;28;20112;-78
2022/08/21 04:58:34;;;;;;;0.98;0.68;;;;;;;18.64;43.86;92396.09;5033407;28;20124;-78
2022/08/21 05:01:01;;;;;;;1.50;0.80;;;;;;;18.67;43.56;92390.13;5031657;28;20381;-78
2022/08/21 05:03:31;;;;;;;2.28;0.70;;;;;;;18.65;43.90;92392.34;5028070;28;20241;-78
2022/08/21 05:05:57;;;;;;;1.75;0.70;;;;;;;18.67;43.96;92392.78;5045524;28;20041;-77
2022/08/21 05:08:27;;;;;;;0.90;0.68;;;;;;;18.65;43.90;92387.03;5020790;28;20045;-78
2022/08/21 05:10:53;;;;;;;1.30;0.80;;;;;;;18.70;43.88;92389.44;5035637;28;20504;-78
2022/08/21 05:13:19;;;;;;;0.88;0.70;;;;;;;18.73;44.11;92394.84;5032048;28;20037;-78
2022/08/21 05:15:46;;;;;;;1.55;0.80;;;;;;;18.77;43.78;92400.25;5030874;28;20026;-78
2022/08/21 05:18:11;;;;;;;1.17;0.73;;;;;;;18.77;44.25;92397.59;5031531;28;20033;-78
2022/08/21 05:20:37;;;;;;;1.00;0.70;;;;;;;18.77;43.90;92402.91;5012054;28;20132;-78
2022/08/21 05:23:08;;;;;;;2.72;0.75;;;;;;;18.75;44.14;92402.44;5024382;28;20103;-78
2022/08/21 05:25:34;;;;;;;7.65;0.80;;;;;;;18.79;43.92;92402.59;5029342;28;20038;-78
2022/08/21 05:27:59;;;;;;;2.45;0.75;;;;;;;18.83;44.50;92400.81;5030785;28;20049;-78
2022/08/21 05:30:25;;;;;;;1.95;0.73;;;;;;;18.87;43.58;92406.97;5032184;28;20044;-78
2022/08/21 05:32:59;;;;;;;1.15;0.80;;;;;;;18.95;43.55;92411.34;5031023;28;20048;-78
2022/08/21 05:35:25;;;;;;;1.08;0.80;;;;;;;19.05;43.33;92410.06;5028834;28;20026;-78
2022/08/21 05:37:51;;;;;;;3.63;0.70;;;;;;;19.06;43.32;92407.06;5031518;28;20554;-78
2022/08/21 05:40:18;;;;;;;0.90;0.75;;;;;;;19.18;43.50;92408.88;5031229;28;20116;-78
2022/08/21 05:42:43;;;;;;;0.75;0.70;;;;;;;19.21;43.23;92410.09;5028771;28;20529;-78
2022/08/21 05:45:11;;;;;;;1.83;0.80;;;;;;;19.27;43.85;92408.72;5031022;28;20033;-78
2022/08/21 05:47:36;;;;;;;1.45;0.80;;;;;;;19.33;43.89;92413.44;5026762;28;20030;-78
2022/08/21 05:50:03;;;;;;;2.08;0.90;;;;;;;19.38;43.35;92401.03;5031041;28;20049;-79
2022/08/21 05:52:28;;;;;;;3.45;0.70;;;;;;;19.43;43.60;92404.22;5028837;28;20469;-78
2022/08/21 05:54:55;;;;;;;0.77;0.70;;;;;;;19.51;43.62;92415.75;5030803;28;20053;-78
2022/08/21 05:57:21;;;;;;;1.20;0.70;;;;;;;19.59;43.85;92409.50;5031310;28;20033;-78
2022/08/21 05:59:47;;;;;;;0.93;0.60;;;;;;;19.66;43.72;92412.31;5031461;28;20056;-78
2022/08/21 06:02:12;;;;;;;1.27;0.88;;;;;;;19.72;43.61;92408.34;5026742;28;20045;-78
2022/08/21 06:04:39;;;;;;;1.65;0.80;;;;;;;19.86;43.68;92410.53;5030119;28;20032;-78
2022/08/21 06:07:05;;;;;;;1.67;0.75;;;;;;;19.99;43.07;92402.44;5030215;28;20132;-78
2022/08/21 06:09:32;;;;;;;1.17;0.80;;;;;;;20.10;42.95;92398.13;5011091;28;20534;-78
2022/08/21 06:11:57;;;;;;;2.25;0.90;;;;;;;20.26;42.70;92396.19;5026166;28;20441;-77
2022/08/21 06:14:23;;;;;;;1.40;0.75;;;;;;;20.46;42.14;92398.88;5029742;28;20155;-78
2022/08/21 06:16:49;;;;;;;1.30;1.00;;;;;;;20.67;41.14;92395.88;5027511;28;20398;-78
2022/08/21 06:19:14;;;;;;;1.38;0.85;;;;;;;21.05;40.79;92400.41;5027220;28;20029;-78
2022/08/21 06:21:40;;;;;;;2.22;1.00;;;;;;;22.25;39.00;92404.63;5023598;28;20056;-79
2022/08/21 06:24:06;;;;;;;1.13;0.82;;;;;;;23.68;35.87;92400.03;5025051;28;20050;-79
2022/08/21 06:26:33;;;;;;;1.15;0.90;;;;;;;24.97;33.05;92405.38;5027765;28;20387;-79
2022/08/21 06:28:58;;;;;;;1.30;0.80;;;;;;;26.07;31.85;92404.03;5029490;28;20173;-79
2022/08/21 06:31:27;;;;;;;1.13;0.90;;;;;;;26.99;31.01;92396.88;5031851;28;20059;-79
2022/08/21 06:33:53;;;;;;;1.20;0.82;;;;;;;27.68;28.91;92400.72;5039854;28;20040;-79
2022/08/21 06:36:20;;;;;;;3.72;1.00;;;;;;;28.15;28.46;92386.91;5032902;28;20056;-79
2022/08/21 06:38:47;;;;;;;1.88;0.88;;;;;;;28.68;27.64;92391.00;5039618;28;20064;-83
2022/08/21 06:41:13;;;;;;;3.63;1.10;;;;;;;29.10;27.58;92386.28;5034062;28;20386;-78
2022/08/21 06:43:38;;;;;;;1.25;1.00;;;;;;;29.61;26.85;92383.63;5028386;28;20045;-77
2022/08/21 06:46:04;;;;;;;1.20;1.00;;;;;;;30.18;25.12;92390.09;5024617;28;20127;-75
2022/08/21 06:48:31;;;;;;;2.35;1.10;;;;;;;30.55;25.19;92391.00;5044233;28;20037;-77
2022/08/21 06:50:59;;;;;;;1.60;1.10;;;;;;;31.07;24.62;92398.50;5039773;28;20033;-77
2022/08/21 06:53:24;;;;;;;2.63;1.10;;;;;;;31.35;23.54;92401.78;5023423;28;20041;-77
2022/08/21 06:55:50;;;;;;;1.67;1.00;;;;;;;31.27;24.26;92393.81;5028833;28;20079;-77
2022/08/21 06:58:16;;;;;;;1.63;0.90;;;;;;;31.08;24.30;92391.91;5026765;28;20026;-77
2022/08/21 07:00:45;;;;;;;1.02;0.93;;;;;;;30.80;24.74;92385.09;5012794;28;20048;-77
2022/08/21 07:03:40;;;;;;;1.60;0.90;;;;;;;30.62;24.09;92386.25;5031168;28;20021;-79
2022/08/21 07:06:08;;;;;;;2.00;0.98;;;;;;;30.28;25.17;92383.75;5032180;28;20041;-80
2022/08/21 07:08:34;;;;;;;0.90;0.80;;;;;;;30.22;25.04;92390.78;5034830;28;20038;-81
2022/08/21 07:11:02;;;;;;;1.40;1.00;;;;;;;30.11;24.69;92385.56;5034638;28;20029;-80
2022/08/21 07:13:28;;;;;;;2.15;0.95;;;;;;;30.12;24.71;92386.34;5035407;28;20041;-80
2022/08/21 07:15:53;;;;;;;1.17;0.90;;;;;;;29.41;24.34;92386.25;5030947;28;20033;-80
2022/08/21 07:18:19;;;;;;;0.82;0.82;;;;;;;29.35;25.26;92385.94;5031066;28;21478;-80
2022/08/21 07:20:45;;;;;;;1.45;0.80;;;;;;;29.57;25.77;92385.63;5033223;28;20057;-80
2022/08/21 07:23:40;;;;;;;2.38;1.10;;;;;;;29.21;26.45;92381.50;5045840;28;20033;-80
2022/08/21 07:26:06;;;;;;;1.50;0.88;;;;;;;28.90;26.17;92383.44;5024052;28;20065;-80
2022/08/21 07:28:32;;;;;;;1.92;0.80;;;;;;;28.89;26.26;92370.34;5033135;28;20416;-80
2022/08/21 07:30:59;;;;;;;1.60;0.98;;;;;;;27.34;29.04;92379.06;5033824;28;20507;-80
2022/08/21 07:33:26;;;;;;;2.22;0.95;;;;;;;27.40;27.58;92374.78;5038399;28;20033;-80
2022/08/21 07:35:52;;;;;;;1.08;0.82;;;;;;;27.16;27.36;92379.91;5019779;28;20048;-80
2022/08/21 07:38:18;;;;;;;1.63;0.90;;;;;;;26.97;28.16;92375.00;5035806;28;20049;-79
2022/08/21 07:40:46;;;;;;;1.27;0.80;;;;;;;27.31;28.51;92374.47;5039402;28;20033;-78
2022/08/21 07:43:11;;;;;;;1.08;0.80;;;;;;;27.05;27.14;92381.88;5034230;28;20522;-78
2022/08/21 07:45:37;;;;;;;1.05;0.70;;;;;;;26.78;29.63;92360.16;5035531;28;20025;-78
2022/08/21 07:48:03;;;;;;;1.27;0.90;;;;;;;26.23;27.48;92372.22;5029741;28;20495;-78
2022/08/21 07:50:30;;;;;;;1.05;0.80;;;;;;;25.70;31.00;92367.66;5052633;28;20152;-79
2022/08/21 07:52:55;;;;;;;0.80;0.70;;;;;;;26.14;32.50;92375.28;5037049;28;20025;-78
2022/08/21 07:55:22;;;;;;;1.35;0.90;;;;;;;26.61;28.86;92364.44;5036715;28;20471;-78
2022/08/21 07:57:48;;;;;;;1.02;0.70;;;;;;;26.54;28.90;92365.19;5019684;28;20112;-79
2022/08/21 08:00:19;;;;;;;1.52;0.90;;;;;;;26.89;29.39;92365.47;5036985;28;20036;-79
2022/08/21 08:02:49;;;;;;;0.60;0.60;;;;;;;27.23;28.19;92378.38;5037792;28;20405;-79
2022/08/21 08:05:15;;;;;;;2.75;1.15;;;;;;;27.32;31.47;92366.03;5037032;28;20047;-79
2022/08/21 08:07:41;;;;;;;1.10;0.80;;;;;;;27.05;32.03;92365.78;5038305;28;20033;-79
2022/08/21 08:10:08;;;;;;;1.27;0.90;;;;;;;26.38;31.44;92367.56;5036935;28;20042;-79
2022/08/21 08:12:35;;;;;;;0.93;0.80;;;;;;;26.06;33.37;92367.63;5030335;28;20129;-78
2022/08/21 08:15:02;;;;;;;2.17;1.05;;;;;;;25.89;38.04;92366.50;5018748;28;20030;-79
2022/08/21 08:17:28;;;;;;;3.72;1.10;;;;;;;25.76;36.99;92364.19;5035370;28;20056;-78
2022/08/21 08:19:54;;;;;;;1.13;0.80;;;;;;;25.79;35.15;92351.19;5035557;28;20045;-78
2022/08/21 08:22:23;;;;;;;1.05;0.93;;;;;;;25.69;36.78;92358.06;5029645;28;20033;-78
2022/08/21 08:24:50;;;;;;;2.03;0.90;;;;;;;25.89;36.72;92353.84;5036836;28;20025;-78
2022/08/21 08:27:16;;;;;;;0.85;0.82;;;;;;;25.98;36.57;92347.34;5038407;28;20043;-77
2022/08/21 08:29:44;;;;;;;1.40;1.10;;;;;;;25.49;37.61;92346.97;5037093;28;20032;-78
2022/08/21 08:32:09;;;;;;;1.90;1.10;;;;;;;25.67;38.11;92353.09;5030312;28;20578;-78
2022/08/21 08:34:37;;;;;;;1.65;0.90;;;;;;;25.63;39.37;92346.22;5036302;28;20179;-78
2022/08/21 08:37:03;;;;;;;2.78;1.10;;;;;;;25.50;37.55;92341.22;5036306;28;20079;-78
2022/08/21 08:39:29;;;;;;;1.23;0.85;;;;;;;25.88;37.01;92351.56;5026048;28;21200;-78
2022/08/21 08:42:09;;;;;;;1.90;1.00;;;;;;;26.05;37.41;92350.78;5017825;28;20029;-78
2022/08/21 08:44:36;;;;;;;1.35;1.00;;;;;;;26.07;39.76;92348.47;5037436;28;20483;-78
2022/08/21 08:47:03;;;;;;;1.27;0.90;;;;;;;25.96;37.59;92347.72;5034691;28;20034;-78
2022/08/21 08:49:29;;;;;;;1.25;0.93;;;;;;;25.95;34.19;92343.50;5036566;28;20052;-78
2022/08/21 08:52:01;;;;;;;1.27;0.93;;;;;;;25.72;32.49;92343.91;5036823;28;20049;-78
2022/08/21 08:54:33;;;;;;;1.35;0.80;;;;;;;26.02;34.42;92348.84;5036875;28;20103;-80
2022/08/21 08:57:07;;;;;;;3.53;1.05;;;;;;;25.87;33.24;92340.09;5036528;28;20033;-78
2022/08/21 08:59:46;;;;;;;1.60;1.00;;;;;;;25.82;38.02;92345.78;5035136;28;20093;-78
2022/08/21 09:02:14;;;;;;;4.47;1.00;;;;;;;25.57;36.54;92337.00;5033520;28;20088;-78
2022/08/21 09:04:40;;;;;;;1.58;1.10;;;;;;;25.82;37.15;92339.66;5033873;28;20026;-78
2022/08/21 09:07:29;;;;;;;1.58;1.10;;;;;;;25.61;36.11;92335.88;5036754;28;20037;-78
2022/08/21 09:10:10;;;;;;;1.80;0.95;;;;;;;25.68;39.41;92348.50;5027422;28;20426;-78
2022/08/21 09:12:59;;;;;;;1.63;1.02;;;;;;;25.47;39.64;92338.56;5033968;28;20108;-78
2022/08/21 09:15:45;;;;;;;2.05;1.20;;;;;;;25.34;41.32;92336.25;5056434;28;20087;-78
2022/08/21 09:18:22;;;;;;;1.00;0.82;;;;;;;25.08;34.08;92331.22;4983915;28;20072;-78
2022/08/21 09:21:00;;;;;;;2.03;0.90;;;;;;;25.11;37.07;92333.91;5035173;28;20052;-78
2022/08/21 09:23:53;;;;;;;1.75;1.10;;;;;;;25.08;36.90;92334.66;5034286;28;20037;-77
2022/08/21 09:26:23;;;;;;;1.05;0.80;;;;;;;25.27;33.86;92340.84;5036133;28;20514;-78
2022/08/21 09:28:57;;;;;;;1.73;1.20;;;;;;;25.23;41.05;92337.38;5019965;28;20033;-78
2022/08/21 09:31:33;;;;;;;1.85;1.08;;;;;;;25.42;40.53;92337.03;5035575;28;20498;-78
2022/08/21 09:34:08;;;;;;;2.08;1.20;;;;;;;25.47;39.47;92339.31;5034838;28;20029;-78
2022/08/21 09:36:37;;;;;;;1.30;1.00;;;;;;;25.46;38.60;92332.41;5034868;28;20026;-78
2022/08/21 09:39:03;;;;;;;1.50;1.10;;;;;;;25.65;35.33;92335.88;5034347;28;20049;-78
2022/08/21 09:41:31;;;;;;;2.65;1.10;;;;;;;25.79;37.25;92341.22;5034751;28;20036;-79
2022/08/21 09:43:58;;;;;;;1.25;0.77;;;;;;;25.96;36.15;92335.09;5024541;28;20451;-78
2022/08/21 09:46:25;;;;;;;1.98;1.30;;;;;;;26.37;35.94;92333.84;5036638;28;20215;-78
2022/08/21 09:48:54;;;;;;;1.33;1.10;;;;;;;26.05;37.63;92337.38;5031750;28;20038;-78
2022/08/21 09:51:31;;;;;;;3.55;1.10;;;;;;;26.28;38.77;92328.13;5021542;28;20480;-78
2022/08/21 09:54:07;;;;;;;1.52;0.90;;;;;;;26.42;39.23;92328.06;5019130;28;20034;-78
2022/08/21 10:00:26;;;;;;;1.80;1.08;;;;;;;26.08;35.16;92322.44;5036093;28;20025;-78
2022/08/21 10:02:52;;;;;;;1.45;0.90;;;;;;;26.24;33.33;92325.44;5031463;28;20033;-78
2022/08/21 10:05:23;;;;;;;2.08;1.10;;;;;;;26.36;35.79;92321.56;5039874;28;20088;-79
2022/08/21 10:07:49;;;;;;;1.27;0.93;;;;;;;26.43;33.80;92323.47;5047471;28;20037;-79
2022/08/21 10:10:16;;;;;;;1.73;0.95;;;;;;;26.23;33.52;92323.91;5032022;28;20034;-79
2022/08/21 10:13:03;;;;;;;1.70;1.02;;;;;;;26.34;34.71;92319.28;5033004;28;20608;-82
2022/08/21 10:15:50;;;;;;;1.58;0.90;;;;;;;26.33;35.13;92323.09;5028576;28;20034;-77
2022/08/21 10:18:43;;;;;;;1.60;1.10;;;;;;;26.34;36.85;92318.50;5045011;28;20395;-78
2022/08/21 10:21:21;;;;;;;0.90;0.85;;;;;;;26.60;37.09;92319.97;5028186;28;20025;-78
2022/08/21 10:24:11;;;;;;;1.58;1.08;;;;;;;26.47;35.17;92313.47;5038079;28;20035;-78
2022/08/21 10:26:56;;;;;;;1.80;1.00;;;;;;;26.43;34.91;92312.72;5038418;28;20037;-77
2022/08/21 10:29:54;;;;;;;2.78;1.30;;;;;;;26.34;34.66;92307.75;5032223;28;20040;-77
2022/08/21 10:32:39;;;;;;;2.03;1.20;;;;;;;26.46;35.59;92306.59;5029591;28;20065;-77
2022/08/21 10:35:10;;;;;;;2.30;1.00;;;;;;;26.35;33.56;92299.34;5024234;28;20519;-77
2022/08/21 10:38:03;;;;;;;1.77;1.10;;;;;;;26.59;34.39;92299.63;5032876;28;20036;-77
2022/08/21 10:40:38;;;;;;;2.15;1.10;;;;;;;26.61;33.32;92296.56;5014706;28;20037;-77
2022/08/21 10:43:44;;;;;;;1.38;1.00;;;;;;;26.65;32.21;92291.94;5031887;28;20391;-77
2022/08/21 10:46:42;;;;;;;1.60;1.10;;;;;;;27.02;32.44;92291.38;5031573;28;20025;-79
2022/08/21 10:49:29;;;;;;;3.05;1.00;;;;;;;26.97;33.45;92286.38;5032591;28;20041;-78
2022/08/21 10:52:16;;;;;;;1.98;1.20;;;;;;;27.01;33.78;92289.81;5031241;28;20030;-79
2022/08/21 10:55:12;;;;;;;1.85;1.17;;;;;;;27.08;31.03;92289.75;5033478;28;20036;-78
2022/08/21 10:58:03;;;;;;;2.65;1.27;;;;;;;27.31;34.99;92283.09;5029440;28;20392;-77
2022/08/21 11:00:47;;;;;;;1.60;1.10;;;;;;;27.53;33.87;92284.47;5026623;28;20383;-78
2022/08/21 11:03:41;;;;;;;1.67;1.00;;;;;;;27.70;36.11;92280.09;5035137;28;20147;-78
2022/08/21 11:06:15;;;;;;;2.75;1.42;;;;;;;28.18;34.80;92281.16;5023827;28;20047;-79
2022/08/21 11:08:46;;;;;;;1.90;1.20;;;;;;;28.49;33.80;92278.53;5031871;28;20045;-79
2022/08/21 11:11:18;;;;;;;1.55;1.13;;;;;;;28.37;32.19;92277.09;5037544;28;20048;-79
2022/08/21 11:13:56;;;;;;;2.08;1.23;;;;;;;28.49;32.80;92278.53;5024296;28;20124;-78
2022/08/21 11:16:40;;;;;;;3.38;1.00;;;;;;;27.95;31.11;92281.81;5031355;28;21053;-78
2022/08/21 11:19:29;;;;;;;1.48;1.00;;;;;;;27.95;31.82;92287.94;5035641;28;20096;-79
2022/08/21 11:22:45;;;;;;;1.55;1.10;;;;;;;27.76;32.99;92283.09;5027953;28;20041;-78
2022/08/21 11:25:22;;;;;;;2.60;0.98;;;;;;;27.95;31.50;92274.50;4974731;28;20050;-79
2022/08/21 11:28:01;;;;;;;1.98;1.08;;;;;;;28.16;30.43;92272.72;4973518;28;20039;-78
2022/08/21 11:30:40;;;;;;;4.90;1.00;;;;;;;28.23;28.87;92269.97;5018268;28;20065;-78
2022/08/21 11:33:06;;;;;;;1.25;0.90;;;;;;;28.40;27.50;92277.06;5029303;28;20042;-78
2022/08/21 11:35:37;;;;;;;1.75;1.05;;;;;;;28.20;27.17;92274.22;5033426;28;20052;-79
2022/08/21 11:38:27;;;;;;;2.20;1.10;;;;;;;28.27;27.36;92262.59;5038204;28;20588;-80
2022/08/21 11:40:56;;;;;;;3.67;1.10;;;;;;;28.05;27.94;92261.31;5033262;28;20033;-78
2022/08/21 11:43:41;;;;;;;1.60;0.98;;;;;;;28.11;28.46;92249.72;5026895;28;20033;-79
2022/08/21 11:46:06;;;;;;;1.13;0.80;;;;;;;28.48;26.89;92247.38;5037240;28;20090;-78
2022/08/21 11:48:46;;;;;;;1.05;0.85;;;;;;;28.59;26.29;92250.69;5037250;28;20038;-79
2022/08/21 11:51:21;;;;;;;2.97;1.10;;;;;;;28.67;24.99;92257.53;5032892;28;20037;-79